Time;durP1;ratioP1;P1;durP2;ratioP2;P2;SDS_P1;SDS_P2;PMS_P1;PMS_P2;Temp;Humidity;BMP_temperature;BMP_pressure;BME280_temperature;BME280_humidity;BME280_pressure;Samples;Min_cycle;Max_cycle;Signal;HPM_P1;HPM_P2
2022/03/18 00:00:17;;;;;;;;;;;;;;;;;;5102453;28;19924;-77
2022/03/18 00:02:43;;;;;;;;;;;;;;;;;;5095474;28;19931;-76
2022/03/18 00:05:09;;;;;;;;;;;;;;;;;;5095707;28;20018;-76
2022/03/18 00:07:34;;;;;;;;;;;;;;;;;;5100390;28;19958;-77
2022/03/18 00:10:00;;;;;;;;;;;;;;;;;;5115670;28;20405;-76
2022/03/18 00:12:25;;;;;;;;;;;;;;;;;;5115541;28;19916;-77
2022/03/18 00:14:51;;;;;;;;;;;;;;;;;;5115482;28;19941;-77
2022/03/18 00:17:17;;;;;;;;;;;;;;;;;;5115482;28;20272;-77
2022/03/18 00:19:42;;;;;;;;;;;;;;;;;;5115459;28;19968;-77
2022/03/18 00:22:08;;;;;;;;;;;;;;;;;;5115620;28;20444;-77
2022/03/18 00:24:34;;;;;;;;;;;;;;;;;;5115677;28;20394;-77
2022/03/18 00:27:03;;;;;;;;;;;;;;;;;;5115620;28;20402;-76
2022/03/18 00:29:30;;;;;;;;;;;;;;;;;;5115311;28;19920;-76
2022/03/18 00:31:56;;;;;;;;;;;;;;;;;;5115225;28;19923;-77
2022/03/18 00:34:21;;;;;;;;;;;;;;;;;;5115210;28;19920;-76
2022/03/18 00:36:47;;;;;;;;;;;;;;;;;;5114479;28;19959;-76
2022/03/18 00:39:12;;;;;;;;;;;;;;;;;;5105774;28;20271;-76
2022/03/18 00:41:37;;;;;;;;;;;;;;;;;;5094365;28;19939;-76
2022/03/18 00:44:03;;;;;;;;;;;;;;;;;;5094611;28;19924;-77
2022/03/18 00:46:29;;;;;;;;;;;;;;;;;;5093300;28;19919;-77
2022/03/18 00:54:22;;;;;;;;;;;;;;;;;;5095124;28;19927;-76
2022/03/18 00:56:47;;;;;;;;;;;;;;;;;;5094487;28;20283;-76
2022/03/18 00:59:13;;;;;;;;;;;;;;;;;;5094438;28;20362;-76
2022/03/18 01:01:38;;;;;;;;;;;;;;;;;;5094452;28;19923;-76
2022/03/18 01:04:04;;;;;;;;;;;;;;;;;;5094288;28;19916;-77
2022/03/18 01:06:30;;;;;;;;;;;;;;;;;;5094219;28;19912;-77
2022/03/18 01:08:56;;;;;;;;;;;;;;;;;;5094042;28;19968;-76
2022/03/18 01:11:21;;;;;;;;;;;;;;;;;;5093900;28;19921;-76
2022/03/18 01:13:46;;;;;;;;;;;;;;;;;;5094346;28;20278;-76
2022/03/18 01:16:13;;;;;;;;;;;;;;;;;;5094700;28;19916;-76
2022/03/18 01:18:39;;;;;;;;;;;;;;;;;;5094595;28;20396;-78
2022/03/18 01:21:05;;;;;;;;;;;;;;;;;;5126940;27;19963;-76
2022/03/18 01:23:30;;;;;;;;;;;;;;;;;;5094129;28;19977;-76
2022/03/18 01:25:56;;;;;;;;;;;;;;;;;;5094064;28;19923;-77
2022/03/18 01:28:22;;;;;;;;;;;;;;;;;;5094074;28;20003;-76
2022/03/18 01:30:47;;;;;;;;;;;;;;;;;;5093965;28;19922;-77
2022/03/18 01:33:13;;;;;;;;;;;;;;;;;;5092662;28;19917;-76
2022/03/18 01:35:38;;;;;;;;;;;;;;;;;;5093947;28;19965;-77
2022/03/18 01:38:03;;;;;;;;;;;;;;;;;;5094009;28;20276;-77
2022/03/18 01:40:29;;;;;;;;;;;;;;;;;;5093675;28;19927;-77
2022/03/18 01:42:55;;;;;;;;;;;;;;;;;;5093926;28;19959;-77
2022/03/18 01:45:20;;;;;;;;;;;;;;;;;;5093821;28;19912;-77
2022/03/18 01:47:47;;;;;;;;;;;;;;;;;;5096958;28;19924;-76
2022/03/18 01:50:13;;;;;;;;;;;;;;;;;;5097930;28;19923;-76
2022/03/18 01:52:39;;;;;;;;;;;;;;;;;;5097979;28;19920;-77
2022/03/18 01:55:05;;;;;;;;;;;;;;;;;;5097968;28;19916;-77
2022/03/18 01:57:30;;;;;;;;;;;;;;;;;;5097953;28;19923;-76
2022/03/18 01:59:57;;;;;;;;;;;;;;;;;;5098000;28;20026;-77
2022/03/18 02:02:23;;;;;;;;;;;;;;;;;;5097884;28;20272;-76
2022/03/18 02:04:48;;;;;;;;;;;;;;;;;;5097846;28;19923;-76
2022/03/18 02:07:14;;;;;;;;;;;;;;;;;;5096468;28;19916;-76
2022/03/18 02:09:40;;;;;;;;;;;;;;;;;;5097518;28;20325;-76
2022/03/18 02:12:06;;;;;;;;;;;;;;;;;;5097256;28;19916;-77
2022/03/18 02:14:35;;;;;;;;;;;;;;;;;;5097676;28;19916;-77
2022/03/18 02:17:04;;;;;;;;;;;;;;;;;;5097571;28;19916;-76
2022/03/18 02:19:30;;;;;;;;;;;;;;;;;;5097510;28;19950;-77
2022/03/18 02:21:56;;;;;;;;;;;;;;;;;;5097391;28;19915;-76
2022/03/18 02:24:22;;;;;;;;;;;;;;;;;;5097311;28;19959;-77
2022/03/18 02:26:49;;;;;;;;;;;;;;;;;;5096000;28;19916;-76
2022/03/18 02:29:16;;;;;;;;;;;;;;;;;;5097177;28;19969;-76
2022/03/18 02:31:42;;;;;;;;;;;;;;;;;;5097385;28;19938;-77
2022/03/18 02:34:07;;;;;;;;;;;;;;;;;;5097344;28;20477;-77
2022/03/18 02:36:33;;;;;;;;;;;;;;;;;;5097082;28;20010;-77
2022/03/18 02:38:58;;;;;;;;;;;;;;;;;;5097160;28;19920;-76
2022/03/18 02:41:24;;;;;;;;;;;;;;;;;;5096809;28;19927;-76
2022/03/18 02:43:49;;;;;;;;;;;;;;;;;;5096844;28;19923;-77
2022/03/18 02:46:15;;;;;;;;;;;;;;;;;;5095714;28;19912;-77
2022/03/18 02:48:41;;;;;;;;;;;;;;;;;;5096901;28;19916;-76
2022/03/18 02:51:07;;;;;;;;;;;;;;;;;;5096764;28;19923;-76
2022/03/18 02:53:32;;;;;;;;;;;;;;;;;;5096718;28;19962;-77
2022/03/18 02:55:58;;;;;;;;;;;;;;;;;;5095483;28;19922;-78
2022/03/18 02:58:23;;;;;;;;;;;;;;;;;;5096014;28;19917;-76
2022/03/18 03:00:49;;;;;;;;;;;;;;;;;;5096570;28;19928;-76
2022/03/18 03:03:15;;;;;;;;;;;;;;;;;;5095325;28;19916;-77
2022/03/18 03:08:24;;;;;;;;;;;;;;;;;;5096833;28;19939;-76
2022/03/18 03:10:49;;;;;;;;;;;;;;;;;;5094703;28;20371;-77
2022/03/18 03:13:15;;;;;;;;;;;;;;;;;;5096119;28;19916;-76
2022/03/18 03:15:40;;;;;;;;;;;;;;;;;;5094759;28;20282;-77
2022/03/18 03:18:06;;;;;;;;;;;;;;;;;;5096197;28;19916;-77
2022/03/18 03:20:32;;;;;;;;;;;;;;;;;;5095899;28;19923;-77
2022/03/18 03:22:58;;;;;;;;;;;;;;;;;;5095998;28;20376;-77
2022/03/18 03:25:23;;;;;;;;;;;;;;;;;;5094303;28;20011;-76
2022/03/18 03:27:55;;;;;;;;;;;;;;;;;;5095508;28;19916;-76
2022/03/18 03:30:21;;;;;;;;;;;;;;;;;;5095266;28;19970;-76
2022/03/18 03:32:46;;;;;;;;;;;;;;;;;;5095857;28;19923;-77
2022/03/18 03:35:12;;;;;;;;;;;;;;;;;;5096053;28;19917;-76
2022/03/18 03:37:38;;;;;;;;;;;;;;;;;;5096287;28;19916;-76
2022/03/18 03:40:04;;;;;;;;;;;;;;;;;;5095958;28;19927;-76
2022/03/18 03:42:29;;;;;;;;;;;;;;;;;;5095932;28;19920;-76
2022/03/18 03:44:55;;;;;;;;;;;;;;;;;;5095906;28;20425;-77
2022/03/18 03:47:21;;;;;;;;;;;;;;;;;;5095812;28;19916;-75
2022/03/18 03:49:46;;;;;;;;;;;;;;;;;;5095749;28;19959;-76
2022/03/18 03:52:12;;;;;;;;;;;;;;;;;;5095581;28;20006;-76
2022/03/18 03:54:38;;;;;;;;;;;;;;;;;;5095736;28;19920;-77
2022/03/18 03:57:04;;;;;;;;;;;;;;;;;;5095716;28;19981;-77
2022/03/18 03:59:29;;;;;;;;;;;;;;;;;;5095546;28;19955;-76
2022/03/18 04:01:55;;;;;;;;;;;;;;;;;;5094794;28;19950;-77
2022/03/18 04:04:20;;;;;;;;;;;;;;;;;;5095022;28;19921;-77
2022/03/18 04:06:46;;;;;;;;;;;;;;;;;;5095065;28;19916;-77
2022/03/18 04:09:12;;;;;;;;;;;;;;;;;;5095035;28;19920;-77
2022/03/18 04:11:38;;;;;;;;;;;;;;;;;;5093945;28;19959;-76
2022/03/18 04:14:03;;;;;;;;;;;;;;;;;;5094438;28;19955;-76
2022/03/18 04:16:28;;;;;;;;;;;;;;;;;;5094705;28;20343;-75
2022/03/18 04:18:54;;;;;;;;;;;;;;;;;;5105826;28;19916;-76
2022/03/18 04:21:19;;;;;;;;;;;;;;;;;;5108400;28;19965;-75
2022/03/18 04:23:45;;;;;;;;;;;;;;;;;;5094516;28;19918;-76
2022/03/18 04:26:10;;;;;;;;;;;;;;;;;;5094568;28;19956;-76
2022/03/18 04:28:36;;;;;;;;;;;;;;;;;;5114045;28;19923;-76
2022/03/18 04:31:01;;;;;;;;;;;;;;;;;;5114217;28;19920;-76
2022/03/18 04:33:26;;;;;;;;;;;;;;;;;;5114518;28;19915;-76
2022/03/18 04:35:52;;;;;;;;;;;;;;;;;;5099169;28;19919;-77
2022/03/18 04:38:18;;;;;;;;;;;;;;;;;;5094092;28;20372;-76
2022/03/18 04:40:43;;;;;;;;;;;;;;;;;;5094254;28;19955;-75
2022/03/18 04:43:09;;;;;;;;;;;;;;;;;;5093839;28;19973;-76
2022/03/18 04:45:35;;;;;;;;;;;;;;;;;;5094145;28;20442;-77
2022/03/18 04:48:00;;;;;;;;;;;;;;;;;;5094360;28;20296;-76
2022/03/18 04:50:26;;;;;;;;;;;;;;;;;;5097137;28;19965;-77
2022/03/18 04:52:51;;;;;;;;;;;;;;;;;;5099966;28;19927;-77
2022/03/18 04:55:17;;;;;;;;;;;;;;;;;;5094530;28;19919;-77
2022/03/18 04:57:42;;;;;;;;;;;;;;;;;;5103527;28;19923;-77
2022/03/18 05:00:08;;;;;;;;;;;;;;;;;;5105904;28;20334;-76
2022/03/18 05:02:35;;;;;;;;;;;;;;;;;;5114793;28;19912;-77
2022/03/18 05:05:01;;;;;;;;;;;;;;;;;;5109773;28;19988;-77
2022/03/18 05:07:27;;;;;;;;;;;;;;;;;;5099081;28;20372;-77
2022/03/18 05:09:52;;;;;;;;;;;;;;;;;;5099736;28;19954;-77
2022/03/18 05:12:18;;;;;;;;;;;;;;;;;;5104426;28;19927;-78
2022/03/18 05:14:44;;;;;;;;;;;;;;;;;;5107042;28;19916;-76
2022/03/18 05:17:12;;;;;;;;;;;;;;;;;;5115013;28;19920;-77
2022/03/18 05:19:37;;;;;;;;;;;;;;;;;;5113737;28;19995;-77
2022/03/18 05:22:04;;;;;;;;;;;;;;;;;;5112323;28;20342;-77
2022/03/18 05:24:29;;;;;;;;;;;;;;;;;;5113828;28;19923;-77
2022/03/18 05:26:55;;;;;;;;;;;;;;;;;;5113950;28;20006;-77
2022/03/18 05:29:20;;;;;;;;;;;;;;;;;;5113056;28;19916;-77
2022/03/18 05:31:49;;;;;;;;;;;;;;;;;;5114271;28;19916;-77
2022/03/18 05:34:14;;;;;;;;;;;;;;;;;;5107671;28;19966;-77
2022/03/18 05:36:40;;;;;;;;;;;;;;;;;;5114327;28;19974;-77
2022/03/18 05:39:05;;;;;;;;;;;;;;;;;;5113490;28;19916;-77
2022/03/18 05:41:31;;;;;;;;;;;;;;;;;;5113459;28;19919;-78
2022/03/18 05:43:59;;;;;;;;;;;;;;;;;;5113091;28;21274;-77
2022/03/18 05:46:24;;;;;;;;;;;;;;;;;;5113941;28;19916;-77
2022/03/18 05:48:50;;;;;;;;;;;;;;;;;;5113450;28;19916;-77
2022/03/18 05:51:16;;;;;;;;;;;;;;;;;;5114180;28;20014;-77
2022/03/18 05:53:41;;;;;;;;;;;;;;;;;;5106653;28;19959;-76
2022/03/18 05:58:51;;;;;;;;;;;;;;;;;;5114195;28;20386;-75
2022/03/18 06:01:16;;;;;;;;;;;;;;;;;;5114143;28;19916;-77
2022/03/18 06:03:42;;;;;;;;;;;;;;;;;;5114012;28;19919;-76
2022/03/18 06:06:07;;;;;;;;;;;;;;;;;;5114097;28;19916;-77
2022/03/18 06:14:00;;;;;;;;;;;;;;;;;;5114323;28;19923;-77
2022/03/18 06:16:26;;;;;;;;;;;;;;;;;;5107623;28;19924;-77
2022/03/18 06:18:51;;;;;;;;;;;;;;;;;;5104146;28;19916;-77
2022/03/18 06:21:17;;;;;;;;;;;;;;;;;;5109598;28;20283;-77
2022/03/18 06:23:43;;;;;;;;;;;;;;;;;;5102419;28;19923;-77
2022/03/18 06:26:08;;;;;;;;;;;;;;;;;;5105660;28;20293;-77
2022/03/18 06:28:34;;;;;;;;;;;;;;;;;;5114144;28;20275;-76
2022/03/18 06:30:59;;;;;;;;;;;;;;;;;;5113780;28;19938;-77
2022/03/18 06:33:27;;;;;;;;;;;;;;;;;;5114350;28;19958;-76
2022/03/18 06:35:53;;;;;;;;;;;;;;;;;;5116048;28;20271;-77
2022/03/18 06:38:18;;;;;;;;;;;;;;;;;;5117402;28;19915;-77
2022/03/18 06:40:44;;;;;;;;;;;;;;;;;;5117310;28;20395;-77
2022/03/18 06:43:09;;;;;;;;;;;;;;;;;;5117417;28;19973;-77
2022/03/18 06:45:34;;;;;;;;;;;;;;;;;;5117412;28;20009;-76
2022/03/18 06:48:00;;;;;;;;;;;;;;;;;;5117372;28;19916;-76
2022/03/18 06:50:25;;;;;;;;;;;;;;;;;;5117319;28;19923;-76
2022/03/18 06:52:51;;;;;;;;;;;;;;;;;;5117208;28;20010;-75
2022/03/18 06:55:16;;;;;;;;;;;;;;;;;;5108974;28;20007;-74
2022/03/18 06:57:45;;;;;;;;;;;;;;;;;;5096727;28;19920;-76
2022/03/18 07:00:10;;;;;;;;;;;;;;;;;;5107934;28;20260;-74
2022/03/18 07:02:37;;;;;;;;;;;;;;;;;;5117135;28;19919;-75
2022/03/18 07:05:03;;;;;;;;;;;;;;;;;;5117214;28;19923;-75
2022/03/18 07:07:29;;;;;;;;;;;;;;;;;;5096731;28;19916;-76
2022/03/18 07:09:54;;;;;;;;;;;;;;;;;;5096601;28;19923;-75
2022/03/18 07:12:19;;;;;;;;;;;;;;;;;;5096514;28;20299;-79
2022/03/18 07:14:45;;;;;;;;;;;;;;;;;;5101657;28;20371;-76
2022/03/18 07:19:54;;;;;;;;;;;;;;;;;;5116075;28;19927;-75
2022/03/18 07:22:20;;;;;;;;;;;;;;;;;;5116710;28;20295;-75
2022/03/18 07:24:46;;;;;;;;;;;;;;;;;;5114210;28;19923;-74
2022/03/18 07:27:11;;;;;;;;;;;;;;;;;;5129731;27;19920;-76
2022/03/18 07:29:37;;;;;;;;;;;;;;;;;;5109981;28;19984;-76
2022/03/18 07:32:03;;;;;;;;;;;;;;;;;;5115618;28;19916;-76
2022/03/18 07:34:29;;;;;;;;;;;;;;;;;;5116503;28;19920;-75
2022/03/18 07:36:54;;;;;;;;;;;;;;;;;;5116718;28;19957;-74
2022/03/18 07:39:19;;;;;;;;;;;;;;;;;;5116409;28;20346;-75
2022/03/18 07:41:45;;;;;;;;;;;;;;;;;;5116270;28;20302;-74
2022/03/18 07:44:10;;;;;;;;;;;;;;;;;;5114088;28;19919;-74
2022/03/18 07:46:37;;;;;;;;;;;;;;;;;;5114819;28;19972;-77
2022/03/18 07:49:02;;;;;;;;;;;;;;;;;;5110790;28;20393;-75
2022/03/18 07:51:30;;;;;;;;;;;;;;;;;;5104633;28;20015;-75
2022/03/18 07:53:56;;;;;;;;;;;;;;;;;;5114509;28;20067;-76
2022/03/18 07:56:22;;;;;;;;;;;;;;;;;;5116154;28;19916;-74
2022/03/18 07:58:47;;;;;;;;;;;;;;;;;;5116082;27;19916;-75
2022/03/18 08:01:13;;;;;;;;;;;;;;;;;;5115133;28;19947;-75
2022/03/18 08:03:38;;;;;;;;;;;;;;;;;;5115964;28;20010;-74
2022/03/18 08:06:04;;;;;;;;;;;;;;;;;;5109289;28;19929;-77
2022/03/18 08:08:31;;;;;;;;;;;;;;;;;;5102687;28;19920;-74
2022/03/18 08:10:56;;;;;;;;;;;;;;;;;;5102484;28;19923;-76
2022/03/18 08:13:22;;;;;;;;;;;;;;;;;;5107192;28;19923;-74
2022/03/18 08:15:48;;;;;;;;;;;;;;;;;;5112681;28;19920;-76
2022/03/18 08:18:13;;;;;;;;;;;;;;;;;;5110707;28;19923;-74
2022/03/18 08:20:41;;;;;;;;;;;;;;;;;;5114842;28;19928;-74
2022/03/18 08:23:07;;;;;;;;;;;;;;;;;;5112177;28;19927;-76
2022/03/18 08:25:33;;;;;;;;;;;;;;;;;;5111192;28;20291;-77
2022/03/18 08:27:58;;;;;;;;;;;;;;;;;;5110709;28;19924;-75
2022/03/18 08:30:24;;;;;;;;;;;;;;;;;;5112672;28;19973;-74
2022/03/18 08:32:50;;;;;;;;;;;;;;;;;;5110080;28;20401;-76
2022/03/18 08:35:15;;;;;;;;;;;;;;;;;;5113140;28;20321;-75
2022/03/18 08:37:59;;;;;;;;;;;;;;;;;;5113634;28;20387;-75
2022/03/18 08:40:26;;;;;;;;;;;;;;;;;;5107209;28;19926;-75
2022/03/18 08:42:52;;;;;;;;;;;;;;;;;;5113451;28;19927;-75
2022/03/18 08:45:18;;;;;;;;;;;;;;;;;;5102797;28;20010;-77
2022/03/18 08:47:44;;;;;;;;;;;;;;;;;;5114067;28;19920;-76
2022/03/18 08:50:09;;;;;;;;;;;;;;;;;;5107485;28;19920;-76
2022/03/18 08:52:35;;;;;;;;;;;;;;;;;;5104128;28;20373;-75
2022/03/18 08:55:01;;;;;;;;;;;;;;;;;;5112400;28;19966;-75
2022/03/18 08:57:31;;;;;;;;;;;;;;;;;;5112802;28;20359;-74
2022/03/18 08:59:56;;;;;;;;;;;;;;;;;;5115036;28;19916;-75
2022/03/18 09:02:22;;;;;;;;;;;;;;;;;;5114746;28;19965;-75
2022/03/18 09:04:52;;;;;;;;;;;;;;;;;;5114771;28;19916;-76
2022/03/18 09:07:18;;;;;;;;;;;;;;;;;;5114797;28;20299;-76
2022/03/18 09:09:43;;;;;;;;;;;;;;;;;;5114142;28;20341;-78
2022/03/18 09:12:09;;;;;;;;;;;;;;;;;;5114672;28;19920;-76
2022/03/18 09:14:34;;;;;;;;;;;;;;;;;;5109901;28;19924;-76
2022/03/18 09:17:00;;;;;;;;;;;;;;;;;;5106500;28;19915;-77
2022/03/18 09:19:27;;;;;;;;;;;;;;;;;;5114623;28;19915;-76
2022/03/18 09:21:54;;;;;;;;;;;;;;;;;;5147611;27;19916;-77
2022/03/18 09:24:19;;;;;;;;;;;;;;;;;;5107803;28;19974;-76
2022/03/18 09:26:45;;;;;;;;;;;;;;;;;;5102660;28;19919;-76
2022/03/18 09:29:12;;;;;;;;;;;;;;;;;;5108984;28;19924;-76
2022/03/18 09:31:37;;;;;;;;;;;;;;;;;;5104019;28;20317;-75
2022/03/18 09:34:03;;;;;;;;;;;;;;;;;;5114328;28;19961;-76
2022/03/18 09:36:29;;;;;;;;;;;;;;;;;;5114324;28;20275;-75
2022/03/18 09:38:55;;;;;;;;;;;;;;;;;;5114450;28;19916;-76
2022/03/18 09:41:20;;;;;;;;;;;;;;;;;;5113477;28;19933;-75
2022/03/18 09:43:46;;;;;;;;;;;;;;;;;;5114176;28;19915;-76
2022/03/18 09:46:12;;;;;;;;;;;;;;;;;;5114732;28;19918;-75
2022/03/18 09:48:38;;;;;;;;;;;;;;;;;;5114280;28;19919;-75
2022/03/18 09:51:04;;;;;;;;;;;;;;;;;;5114168;28;19915;-75
2022/03/18 09:53:29;;;;;;;;;;;;;;;;;;5114004;28;20002;-75
2022/03/18 09:55:55;;;;;;;;;;;;;;;;;;5114122;28;19923;-75
2022/03/18 09:58:24;;;;;;;;;;;;;;;;;;5114137;28;19923;-75
2022/03/18 10:00:57;;;;;;;;;;;;;;;;;;5114174;28;19940;-77
2022/03/18 10:03:23;;;;;;;;;;;;;;;;;;5114138;28;19916;-75
2022/03/18 10:05:59;;;;;;;;;;;;;;;;;;5114062;28;20018;-75
2022/03/18 10:08:44;;;;;;;;;;;;;;;;;;5116421;28;19915;-75
2022/03/18 10:11:14;;;;;;;;;;;;;;;;;;5103545;28;20019;-76
2022/03/18 10:14:08;;;;;;;;;;;;;;;;;;5118072;28;19965;-75
2022/03/18 10:16:34;;;;;;;;;;;;;;;;;;5094913;28;19965;-76
2022/03/18 10:19:04;;;;;;;;;;;;;;;;;;5117982;28;19923;-76
2022/03/18 10:21:30;;;;;;;;;;;;;;;;;;5118044;28;19915;-76
2022/03/18 10:24:09;;;;;;;;;;;;;;;;;;5117963;28;19922;-75
2022/03/18 10:26:35;;;;;;;;;;;;;;;;;;5117991;28;19937;-76
2022/03/18 10:29:01;;;;;;;;;;;;;;;;;;5117756;28;20371;-75
2022/03/18 10:31:26;;;;;;;;;;;;;;;;;;5117634;28;19922;-74
2022/03/18 10:39:22;;;;;;;;;;;;;;;;;;5117668;28;19969;-76
2022/03/18 10:41:47;;;;;;;;;;;;;;;;;;5117649;27;19959;-75
2022/03/18 10:44:15;;;;;;;;;;;;;;;;;;5117483;28;19916;-75
2022/03/18 10:46:41;;;;;;;;;;;;;;;;;;5117436;28;20321;-76
2022/03/18 10:49:07;;;;;;;;;;;;;;;;;;5116099;28;19916;-75
2022/03/18 10:51:37;;;;;;;;;;;;;;;;;;5117162;28;19916;-76
2022/03/18 10:54:04;;;;;;;;;;;;;;;;;;5117605;28;19916;-75
2022/03/18 10:56:29;;;;;;;;;;;;;;;;;;5117325;28;20040;-75
2022/03/18 10:58:55;;;;;;;;;;;;;;;;;;5117324;28;20363;-75
2022/03/18 11:01:22;;;;;;;;;;;;;;;;;;5117384;28;20278;-75
2022/03/18 11:03:48;;;;;;;;;;;;;;;;;;5117108;28;19923;-75
2022/03/18 11:06:16;;;;;;;;;;;;;;;;;;5108446;27;19916;-75
2022/03/18 11:08:45;;;;;;;;;;;;;;;;;;5096665;28;19923;-75
2022/03/18 11:11:18;;;;;;;;;;;;;;;;;;5096593;28;19923;-75
2022/03/18 11:14:00;;;;;;;;;;;;;;;;;;5096542;28;19923;-74
2022/03/18 11:16:28;;;;;;;;;;;;;;;;;;5102119;28;19920;-76
2022/03/18 11:18:54;;;;;;;;;;;;;;;;;;5113065;28;19920;-74
2022/03/18 11:21:21;;;;;;;;;;;;;;;;;;5114467;28;20018;-75
2022/03/18 11:23:47;;;;;;;;;;;;;;;;;;5114293;28;20451;-76
2022/03/18 11:26:14;;;;;;;;;;;;;;;;;;5115154;28;19962;-75
2022/03/18 11:28:40;;;;;;;;;;;;;;;;;;5115934;28;19924;-74
2022/03/18 11:31:06;;;;;;;;;;;;;;;;;;5116637;27;19961;-74
2022/03/18 11:33:33;;;;;;;;;;;;;;;;;;5116505;28;20329;-74
2022/03/18 11:36:03;;;;;;;;;;;;;;;;;;5117050;28;20346;-76
2022/03/18 11:38:47;;;;;;;;;;;;;;;;;;5102373;27;19919;-76
2022/03/18 11:41:14;;;;;;;;;;;;;;;;;;5104951;28;19959;-75
2022/03/18 11:43:39;;;;;;;;;;;;;;;;;;5114759;28;19931;-76
2022/03/18 11:46:14;;;;;;;;;;;;;;;;;;5115498;28;19916;-78
2022/03/18 11:48:43;;;;;;;;;;;;;;;;;;5100533;28;19924;-76
2022/03/18 11:51:27;;;;;;;;;;;;;;;;;;5116385;28;19916;-75
2022/03/18 11:53:54;;;;;;;;;;;;;;;;;;5113223;28;19969;-75
2022/03/18 11:56:41;;;;;;;;;;;;;;;;;;5116065;28;19916;-76
2022/03/18 11:59:25;;;;;;;;;;;;;;;;;;5116163;28;20325;-75
2022/03/18 12:01:57;;;;;;;;;;;;;;;;;;5107899;28;19920;-74
2022/03/18 12:04:42;;;;;;;;;;;;;;;;;;5143864;27;19916;-74
2022/03/18 12:07:41;;;;;;;;;;;;;;;;;;5115232;28;20271;-77
2022/03/18 12:10:07;;;;;;;;;;;;;;;;;;5115871;28;19915;-76
2022/03/18 12:12:38;;;;;;;;;;;;;;;;;;5115678;28;19931;-76
2022/03/18 12:15:05;;;;;;;;;;;;;;;;;;5114428;28;19927;-75
2022/03/18 12:17:31;;;;;;;;;;;;;;;;;;5101248;28;19934;-77
2022/03/18 12:19:59;;;;;;;;;;;;;;;;;;5100979;28;20003;-75
2022/03/18 12:22:25;;;;;;;;;;;;;;;;;;5104066;28;19916;-75
2022/03/18 12:24:52;;;;;;;;;;;;;;;;;;5095655;28;20436;-75
2022/03/18 12:27:22;;;;;;;;;;;;;;;;;;5098268;28;19924;-77
2022/03/18 12:29:47;;;;;;;;;;;;;;;;;;5095930;28;19966;-77
2022/03/18 12:32:16;;;;;;;;;;;;;;;;;;5097614;28;19960;-77
2022/03/18 12:35:04;;;;;;;;;;;;;;;;;;5100207;28;19925;-79
2022/03/18 12:37:32;;;;;;;;;;;;;;;;;;5102636;28;19935;-77
2022/03/18 12:40:11;;;;;;;;;;;;;;;;;;5101658;28;19999;-76
2022/03/18 12:42:46;;;;;;;;;;;;;;;;;;5103229;28;19924;-76
2022/03/18 12:45:12;;;;;;;;;;;;;;;;;;5107608;28;20362;-79
2022/03/18 12:47:37;;;;;;;;;;;;;;;;;;5147478;27;19963;-76
2022/03/18 12:50:03;;;;;;;;;;;;;;;;;;5113902;28;20335;-76
2022/03/18 12:52:29;;;;;;;;;;;;;;;;;;5114912;28;19930;-77
2022/03/18 12:55:07;;;;;;;;;;;;;;;;;;5114906;28;19915;-76
2022/03/18 12:57:33;;;;;;;;;;;;;;;;;;5114795;28;19916;-76
2022/03/18 12:59:59;;;;;;;;;;;;;;;;;;5114558;28;19961;-75
2022/03/18 13:02:25;;;;;;;;;;;;;;;;;;5114782;28;19916;-76
2022/03/18 13:04:57;;;;;;;;;;;;;;;;;;5114791;28;19916;-77
2022/03/18 13:07:27;;;;;;;;;;;;;;;;;;5114732;28;19916;-78
2022/03/18 13:09:52;;;;;;;;;;;;;;;;;;5094385;28;20372;-78
2022/03/18 13:12:23;;;;;;;;;;;;;;;;;;5094066;28;19916;-77
2022/03/18 13:14:53;;;;;;;;;;;;;;;;;;5096211;28;19923;-77
2022/03/18 13:17:31;;;;;;;;;;;;;;;;;;5103125;28;19916;-76
2022/03/18 13:19:57;;;;;;;;;;;;;;;;;;5092899;28;19916;-76
2022/03/18 13:22:23;;;;;;;;;;;;;;;;;;5094084;28;19923;-77
2022/03/18 13:24:50;;;;;;;;;;;;;;;;;;5092778;28;19951;-76
2022/03/18 13:27:20;;;;;;;;;;;;;;;;;;5094126;28;19916;-77
2022/03/18 13:35:15;;;;;;;;;;;;;;;;;;5099352;28;19931;-78
2022/03/18 13:37:41;;;;;;;;;;;;;;;;;;5103220;28;19924;-77
2022/03/18 13:40:10;;;;;;;;;;;;;;;;;;5112586;28;19919;-77
2022/03/18 13:42:35;;;;;;;;;;;;;;;;;;5113348;28;19916;-77
2022/03/18 13:45:01;;;;;;;;;;;;;;;;;;5112298;28;19922;-78
2022/03/18 13:47:27;;;;;;;;;;;;;;;;;;5113494;28;19964;-75
2022/03/18 13:49:57;;;;;;;;;;;;;;;;;;5112602;28;19998;-77
2022/03/18 13:52:36;;;;;;;;;;;;;;;;;;5113436;28;19916;-78
2022/03/18 13:55:02;;;;;;;;;;;;;;;;;;5113505;28;20082;-76
2022/03/18 13:57:42;;;;;;;;;;;;;;;;;;5111841;28;19911;-78
2022/03/18 14:00:08;;;;;;;;;;;;;;;;;;5113505;28;19916;-78
2022/03/18 14:02:34;;;;;;;;;;;;;;;;;;5113365;28;19927;-77
2022/03/18 14:05:00;;;;;;;;;;;;;;;;;;5105684;28;20309;-78
2022/03/18 14:07:44;;;;;;;;;;;;;;;;;;5099410;28;19957;-78
2022/03/18 14:10:09;;;;;;;;;;;;;;;;;;5104209;28;19924;-78
2022/03/18 14:12:35;;;;;;;;;;;;;;;;;;5110277;28;20059;-78
2022/03/18 14:15:07;;;;;;;;;;;;;;;;;;5110925;28;19920;-78
2022/03/18 14:17:33;;;;;;;;;;;;;;;;;;5110177;28;19993;-78
2022/03/18 14:19:58;;;;;;;;;;;;;;;;;;5113170;28;20384;-77
2022/03/18 14:22:32;;;;;;;;;;;;;;;;;;5111904;28;19959;-78
2022/03/18 14:24:58;;;;;;;;;;;;;;;;;;5113182;28;19922;-77
2022/03/18 14:27:24;;;;;;;;;;;;;;;;;;5113139;28;19919;-78
2022/03/18 14:29:50;;;;;;;;;;;;;;;;;;5113147;28;19927;-77
2022/03/18 14:32:15;;;;;;;;;;;;;;;;;;5113334;28;19969;-78
2022/03/18 14:34:41;;;;;;;;;;;;;;;;;;5113117;28;19923;-77
2022/03/18 14:37:07;;;;;;;;;;;;;;;;;;5113371;28;19951;-76
2022/03/18 14:39:32;;;;;;;;;;;;;;;;;;5110525;28;19947;-78
2022/03/18 14:41:58;;;;;;;;;;;;;;;;;;5099765;28;19927;-78
2022/03/18 14:44:23;;;;;;;;;;;;;;;;;;5092655;28;19920;-76
2022/03/18 14:46:48;;;;;;;;;;;;;;;;;;5108103;28;19920;-78
2022/03/18 14:49:14;;;;;;;;;;;;;;;;;;5112467;28;20275;-78
2022/03/18 14:51:39;;;;;;;;;;;;;;;;;;5106763;28;20747;-78
2022/03/18 14:54:05;;;;;;;;;;;;;;;;;;5094488;28;20756;-78
2022/03/18 14:56:30;;;;;;;;;;;;;;;;;;5095533;28;20361;-78
2022/03/18 14:58:58;;;;;;;;;;;;;;;;;;5108646;28;19923;-78
2022/03/18 15:01:24;;;;;;;;;;;;;;;;;;5114902;28;19920;-78
2022/03/18 15:03:51;;;;;;;;;;;;;;;;;;5116478;28;19923;-77
2022/03/18 15:06:16;;;;;;;;;;;;;;;;;;5100356;28;19920;-78
2022/03/18 15:08:42;;;;;;;;;;;;;;;;;;5100296;28;19930;-79
2022/03/18 15:11:09;;;;;;;;;;;;;;;;;;5106704;28;19916;-77
2022/03/18 15:13:36;;;;;;;;;;;;;;;;;;5116300;28;19922;-78
2022/03/18 15:16:02;;;;;;;;;;;;;;;;;;5116271;28;19927;-77
2022/03/18 15:18:27;;;;;;;;;;;;;;;;;;5116196;28;19916;-76
2022/03/18 15:20:53;;;;;;;;;;;;;;;;;;5106529;28;19946;-78
2022/03/18 15:23:18;;;;;;;;;;;;;;;;;;5101679;28;20375;-77
2022/03/18 15:25:44;;;;;;;;;;;;;;;;;;5102974;28;20003;-77
2022/03/18 15:28:09;;;;;;;;;;;;;;;;;;5114629;28;19927;-77
2022/03/18 15:30:36;;;;;;;;;;;;;;;;;;5115032;28;20413;-76
2022/03/18 15:33:01;;;;;;;;;;;;;;;;;;5115117;28;19920;-76
2022/03/18 15:35:27;;;;;;;;;;;;;;;;;;5112086;27;20252;-76
2022/03/18 15:37:52;;;;;;;;;;;;;;;;;;5102421;28;19967;-76
2022/03/18 15:40:18;;;;;;;;;;;;;;;;;;5103919;28;19927;-76
2022/03/18 15:42:48;;;;;;;;;;;;;;;;;;5103835;28;19930;-77
2022/03/18 15:45:13;;;;;;;;;;;;;;;;;;5106971;28;19916;-78
2022/03/18 15:47:39;;;;;;;;;;;;;;;;;;5102695;28;20027;-77
2022/03/18 15:50:26;;;;;;;;;;;;;;;;;;5109591;28;20403;-77
2022/03/18 15:52:52;;;;;;;;;;;;;;;;;;5105749;28;19920;-79
2022/03/18 15:55:19;;;;;;;;;;;;;;;;;;5117276;27;19920;-79
2022/03/18 15:57:49;;;;;;;;;;;;;;;;;;5106990;28;19977;-76
2022/03/18 16:00:15;;;;;;;;;;;;;;;;;;5101105;28;20359;-77
2022/03/18 16:02:41;;;;;;;;;;;;;;;;;;5102678;28;19924;-77
2022/03/18 16:05:07;;;;;;;;;;;;;;;;;;5098985;28;19928;-77
2022/03/18 16:07:32;;;;;;;;;;;;;;;;;;5100233;27;19934;-77
2022/03/18 16:09:58;;;;;;;;;;;;;;;;;;5100037;28;20043;-77
2022/03/18 16:12:23;;;;;;;;;;;;;;;;;;5102404;28;19934;-77
2022/03/18 16:14:49;;;;;;;;;;;;;;;;;;5100312;28;20388;-78
2022/03/18 16:17:15;;;;;;;;;;;;;;;;;;5104234;28;19919;-77
2022/03/18 16:19:42;;;;;;;;;;;;;;;;;;5099979;28;19955;-78
2022/03/18 16:22:08;;;;;;;;;;;;;;;;;;5098640;28;19924;-76
2022/03/18 16:24:34;;;;;;;;;;;;;;;;;;5102499;28;19965;-79
2022/03/18 16:27:01;;;;;;;;;;;;;;;;;;5103059;28;19932;-77
2022/03/18 16:29:26;;;;;;;;;;;;;;;;;;5100429;28;19924;-78
2022/03/18 16:31:52;;;;;;;;;;;;;;;;;;5100469;28;19931;-77
2022/03/18 16:34:21;;;;;;;;;;;;;;;;;;5099457;28;19926;-78
2022/03/18 16:36:47;;;;;;;;;;;;;;;;;;5100790;28;19920;-76
2022/03/18 16:39:13;;;;;;;;;;;;;;;;;;5099430;28;19972;-80
2022/03/18 16:41:39;;;;;;;;;;;;;;;;;;5097337;28;19927;-78
2022/03/18 16:44:07;;;;;;;;;;;;;;;;;;5102427;28;19927;-78
2022/03/18 16:49:23;;;;;;;;;;;;;;;;;;5097997;28;19946;-76
2022/03/18 16:51:51;;;;;;;;;;;;;;;;;;5100546;28;19924;-76
2022/03/18 16:54:16;;;;;;;;;;;;;;;;;;5101408;28;19927;-77
2022/03/18 16:56:43;;;;;;;;;;;;;;;;;;5101984;28;20386;-77
2022/03/18 16:59:10;;;;;;;;;;;;;;;;;;5098264;28;20383;-81
2022/03/18 17:01:50;;;;;;;;;;;;;;;;;;5108106;28;19916;-78
2022/03/18 17:04:25;;;;;;;;;;;;;;;;;;5111395;28;20430;-77
2022/03/18 17:06:51;;;;;;;;;;;;;;;;;;5104976;28;19920;-76
2022/03/18 17:09:17;;;;;;;;;;;;;;;;;;5131850;27;20010;-76
2022/03/18 17:11:43;;;;;;;;;;;;;;;;;;5102865;28;20019;-78
2022/03/18 17:14:09;;;;;;;;;;;;;;;;;;5130957;27;20320;-77
2022/03/18 17:16:35;;;;;;;;;;;;;;;;;;5102567;28;20030;-77